Latest Weather Observations for Batchelor

IDD60801

Issued at 9:31 pm CST Thursday 30 July 2015 (issued every 30 minutes, with the page automatically refreshed every 10 minutes)

About weather observations | Map of weather stations | Latest weather observations for NT | Other Formats
Station Details ID: 014272 Name: BATCHELOR AIRPORT Lat: -13.05 Lon: 131.03 Height: 104.0 m
Data from the previous 72 hours. | See also: Recent months at Batchelor
Date/Time
CST
Temp
°C
App
Temp
°C
Dew
Point
Rel
Hum
%
Delta-T
°C
Wind Press
QNH
hPa
Press
MSL
hPa
Rain
since 9 am
mm
Dir
 
Spd
km/h
Gust
km/h
Spd
kts
Gust
kts
30/09:30pm 27.5 26.2 9.8 33 9.9 SE 7 11 4 6 1016.0 1015.5 0.0
30/09:00pm 28.4 25.9 9.6 31 10.5 SE 13 19 7 10 1015.6 1015.1 0.0
30/08:30pm 28.8 26.6 9.5 30 10.8 SE 11 19 6 10 1015.2 1014.7 0.0
30/08:00pm 29.0 26.8 9.2 29 11.0 SE 11 17 6 9 1014.7 1014.2 0.0
30/07:30pm 29.5 27.5 8.5 27 11.6 SE 9 13 5 7 1014.3 1013.8 0.0
30/07:00pm 29.9 28.0 8.9 27 11.7 SE 9 13 5 7 1013.9 1013.4 0.0
30/06:30pm 31.0 28.2 8.7 25 12.5 SE 13 19 7 10 1013.5 1013.0 0.0
30/06:00pm 31.8 29.3 8.1 23 13.2 ESE 11 19 6 10 1013.2 1012.7 0.0
30/05:30pm 32.8 29.9 8.3 22 13.7 ESE 13 19 7 10 1012.9 1012.4 0.0
30/05:00pm 33.2 30.4 8.6 22 13.9 ESE 13 20 7 11 1012.8 1012.3 0.0
30/04:30pm 33.3 30.3 9.4 23 13.6 SE 15 24 8 13 1012.8 1012.3 0.0
30/04:00pm 33.4 31.0 8.8 22 13.9 ESE 11 26 6 14 1012.9 1012.4 0.0
30/03:30pm 33.4 29.9 8.8 22 13.9 ENE 17 24 9 13 1013.1 1012.6 0.0
30/03:00pm 33.9 30.7 9.9 23 13.8 ESE 17 30 9 16 1013.5 1013.0 0.0
30/02:30pm 32.6 29.6 9.4 24 13.2 SE 15 22 8 12 1013.9 1013.4 0.0
30/02:00pm 33.1 30.4 10.4 25 13.2 ESE 15 24 8 13 1014.5 1014.0 0.0
30/01:30pm 32.4 29.3 11.6 28 12.2 E 19 32 10 17 1015.1 1014.6 0.0
30/01:00pm 31.8 28.1 11.6 29 11.9 ESE 22 33 12 18 1015.6 1015.1 0.0
30/12:30pm 31.5 28.6 12.3 31 11.4 ESE 19 30 10 16 1016.1 1015.6 0.0
30/12:00pm 31.3 27.4 12.2 31 11.3 ESE 24 39 13 21 1016.6 1016.1 0.0
30/11:30am 30.6 26.3 12.0 32 10.9 E 26 37 14 20 1016.9 1016.4 0.0
30/11:00am 30.1 26.7 12.5 34 10.4 E 22 35 12 19 1017.4 1016.9 0.0
30/10:30am 29.1 25.6 12.1 35 9.9 E 22 32 12 17 1017.6 1017.1 0.0
30/10:00am 28.0 25.0 12.4 38 9.1 ESE 20 28 11 15 1017.7 1017.2 0.0
30/09:30am 26.2 23.5 13.0 44 7.7 ESE 19 28 10 15 1017.7 1017.2 0.0
30/09:00am 25.5 23.6 13.0 46 7.3 ESE 15 22 8 12 1017.5 1017.0 0.0
30/08:30am 23.9 22.6 12.5 49 6.5 E 11 17 6 9 1017.4 1016.9 0.0
30/08:00am 21.4 20.8 11.7 54 5.4 E 6 7 3 4 1017.3 1016.8 0.0
30/07:30am 18.8 18.5 11.6 63 4.0 E 4 6 2 3 1017.1 1016.6 0.0
30/07:00am 17.8 17.3 10.7 63 3.8 E 4 4 2 2 1016.8 1016.3 0.0
30/06:30am 18.2 18.0 10.3 60 4.2 E 2 2 1 1 1016.7 1016.2 0.0
30/06:00am 18.7 18.1 10.5 59 4.4 E 4 4 2 2 1016.4 1015.9 0.0
30/05:30am 18.9 18.3 10.5 58 4.5 E 4 6 2 3 1016.3 1015.8 0.0
30/05:00am 19.0 18.0 10.3 57 4.7 E 6 6 3 3 1016.1 1015.6 0.0
30/04:30am 19.7 18.6 10.1 54 5.2 E 6 6 3 3 1016.1 1015.6 0.0
30/04:00am 20.1 19.4 9.9 52 5.5 ESE 4 6 2 3 1016.1 1015.6 0.0
30/03:30am 20.1 19.1 10.2 53 5.4 E 6 7 3 4 1016.5 1016.0 0.0
30/03:00am 20.0 18.9 10.1 53 5.3 E 6 6 3 3 1016.7 1016.2 0.0
30/02:30am 20.6 19.9 10.1 51 5.7 E 4 6 2 3 1016.7 1016.2 0.0
30/02:00am 20.3 19.3 10.4 53 5.4 E 6 6 3 3 1016.9 1016.4 0.0
30/01:30am 19.4 18.7 9.9 54 5.1 ESE 4 4 2 2 1017.0 1016.5 0.0
30/01:00am 20.6 19.8 9.8 50 5.8 ESE 4 4 2 2 1017.2 1016.7 0.0
30/12:30am 21.3 20.5 9.5 47 6.3 ESE 4 7 2 4 1017.2 1016.7 0.0
30/12:00am 23.3 21.8 9.3 41 7.6 SE 7 9 4 5 1017.1 1016.6 0.0
 
Date/Time
CST
Temp
°C
App
Temp
°C
Dew
Point
Rel
Hum
%
Delta-T
°C
Wind Press
QNH
hPa
Press
MSL
hPa
Rain
since 9 am
mm
Dir
 
Spd
km/h
Gust
km/h
Spd
kts
Gust
kts
29/11:30pm 23.6 22.1 9.2 40 7.8 ESE 7 9 4 5 1017.0 1016.5 0.0
29/11:00pm 23.2 21.9 9.2 41 7.6 ESE 6 7 3 4 1017.0 1016.5 0.0
29/10:30pm 23.4 22.0 9.0 40 7.8 SE 6 7 3 4 1017.0 1016.5 0.0
29/10:00pm 23.7 22.7 10.4 43 7.4 SE 6 9 3 5 1017.0 1016.5 0.0
29/09:30pm 21.7 20.9 9.6 46 6.5 SE 4 6 2 3 1017.0 1016.5 0.0
29/09:00pm 22.6 22.5 9.4 43 7.1 CALM 0 2 0 1 1016.8 1016.3 0.0
29/08:30pm 23.2 22.2 8.9 40 7.7 SE 4 4 2 2 1016.5 1016.0 0.0
29/08:00pm 24.4 23.8 8.8 37 8.4 SE 2 4 1 2 1016.1 1015.6 0.0
29/07:30pm 26.9 25.3 7.9 30 10.2 SE 6 6 3 3 1015.7 1015.2 0.0
29/07:00pm 27.6 25.7 7.5 28 10.8 SE 7 9 4 5 1015.3 1014.8 0.0
29/06:30pm 29.1 26.5 7.7 26 11.6 ESE 11 15 6 8 1015.0 1014.5 0.0
29/06:00pm 30.4 26.9 7.0 23 12.7 ESE 15 20 8 11 1014.7 1014.2 0.0
29/05:30pm 31.2 28.2 7.6 23 13.0 ESE 13 20 7 11 1014.4 1013.9 0.0
29/05:00pm 31.8 28.8 7.5 22 13.4 ESE 13 28 7 15 1014.2 1013.7 0.0
29/04:30pm 31.9 28.5 7.5 22 13.4 E 15 24 8 13 1014.2 1013.7 0.0
29/04:00pm 31.9 27.9 8.2 23 13.2 E 19 28 10 15 1014.3 1013.8 0.0
29/03:30pm 32.3 28.7 8.5 23 13.3 ESE 17 30 9 16 1014.4 1013.9 0.0
29/03:00pm 31.9 27.9 8.2 23 13.2 ESE 19 33 10 18 1014.7 1014.2 0.0
29/02:30pm 31.6 27.7 8.6 24 12.9 ESE 19 32 10 17 1015.0 1014.5 0.0
29/02:00pm 32.1 28.3 9.0 24 13.0 E 19 26 10 14 1015.4 1014.9 0.0
29/01:30pm 30.6 26.4 8.3 25 12.3 ESE 20 37 11 20 1015.8 1015.3 0.0
29/01:00pm 30.3 25.8 8.7 26 12.0 ESE 22 37 12 20 1016.3 1015.8 0.0
29/12:30pm 30.1 25.7 9.1 27 11.7 E 22 35 12 19 1016.9 1016.4 0.0
29/12:00pm 29.8 25.2 8.2 26 11.9 ESE 22 32 12 17 1017.5 1017.0 0.0
29/11:30am 28.6 23.2 7.8 27 11.3 ESE 26 41 14 22 1018.0 1017.5 0.0
29/11:00am 27.9 22.5 8.2 29 10.7 ESE 26 41 14 22 1018.4 1017.9 0.0
29/10:30am 26.7 22.3 9.1 33 9.7 SE 22 32 12 17 1018.7 1018.2 0.0
29/10:00am 25.5 20.4 9.3 36 8.9 ESE 26 39 14 21 1018.8 1018.3 0.0
29/09:30am 25.3 21.3 10.4 39 8.3 ESE 22 32 12 17 1019.0 1018.5 0.0
29/09:00am 23.6 20.0 10.6 44 7.2 SE 20 28 11 15 1018.8 1018.3 0.0
29/08:30am 22.3 19.4 9.5 44 6.9 SE 15 24 8 13 1018.6 1018.1 0.0
29/08:00am 20.9 18.1 8.5 45 6.5 SE 13 19 7 10 1018.4 1017.9 0.0
29/07:30am 19.5 17.4 8.2 48 5.9 SE 9 13 5 7 1018.1 1017.6 0.0
29/07:00am 19.6 17.0 7.7 46 6.1 SE 11 15 6 8 1017.8 1017.3 0.0
29/06:30am 20.3 17.8 8.0 45 6.4 SE 11 15 6 8 1017.5 1017.0 0.0
29/06:00am 20.0 17.8 7.7 45 6.3 SE 9 13 5 7 1017.1 1016.6 0.0
29/05:30am 20.6 18.3 7.6 43 6.7 SE 9 15 5 8 1016.9 1016.4 0.0
29/05:00am 21.2 18.4 7.1 40 7.3 SE 11 17 6 9 1016.7 1016.2 0.0
29/04:30am 21.4 18.7 7.3 40 7.3 SE 11 17 6 9 1016.6 1016.1 0.0
29/04:00am 21.7 19.3 7.2 39 7.5 SE 9 13 5 7 1016.6 1016.1 0.0
29/03:30am 21.4 19.4 7.3 40 7.3 SE 7 11 4 6 1016.8 1016.3 0.0
29/03:00am 21.7 19.8 7.5 40 7.4 SE 7 11 4 6 1017.0 1016.5 0.0
29/02:30am 21.5 19.8 7.7 41 7.2 SE 6 9 3 5 1017.3 1016.8 0.0
29/02:00am 22.2 20.2 7.2 38 7.8 SE 7 11 4 6 1017.4 1016.9 0.0
29/01:30am 22.4 20.5 7.4 38 7.8 SE 7 11 4 6 1017.4 1016.9 0.0
29/01:00am 22.4 20.7 7.4 38 7.8 SE 6 7 3 4 1017.6 1017.1 0.0
29/12:30am 23.3 20.6 7.4 36 8.3 SE 11 13 6 7 1017.6 1017.1 0.0
29/12:00am 22.8 21.0 8.1 39 7.8 SE 7 11 4 6 1017.7 1017.2 0.0
 
Date/Time
CST
Temp
°C
App
Temp
°C
Dew
Point
Rel
Hum
%
Delta-T
°C
Wind Press
QNH
hPa
Press
MSL
hPa
Rain
since 9 am
mm
Dir
 
Spd
km/h
Gust
km/h
Spd
kts
Gust
kts
28/11:30pm 21.9 20.4 8.4 42 7.1 SE 6 7 3 4 1017.8 1017.3 0.0
28/11:00pm 21.7 20.3 8.9 44 6.8 SE 6 7 3 4 1017.9 1017.4 0.0
28/10:30pm 21.1 20.1 8.7 45 6.6 SE 4 6 2 3 1018.0 1017.5 0.0
28/10:00pm 21.5 20.8 8.7 44 6.8 SE 2 4 1 2 1017.9 1017.4 0.0
28/09:30pm 23.1 21.9 8.0 38 8.0 SE 4 6 2 3 1017.8 1017.3 0.0
28/09:00pm 23.7 22.2 8.6 38 8.1 SE 6 6 3 3 1017.7 1017.2 0.0
28/08:30pm 23.6 22.0 8.1 37 8.2 SE 6 6 3 3 1017.4 1016.9 0.0
28/08:00pm 25.0 23.3 7.6 33 9.2 ESE 6 7 3 4 1017.2 1016.7 0.0
28/07:30pm 25.7 23.7 7.3 31 9.7 ESE 7 9 4 5 1016.7 1016.2 0.0
28/07:00pm 27.2 24.8 7.1 28 10.7 ESE 9 13 5 7 1016.2 1015.7 0.0
28/06:30pm 28.9 25.3 6.9 25 11.8 E 15 22 8 12 1015.8 1015.3 0.0
28/06:00pm 30.1 25.9 7.3 24 12.4 ESE 19 28 10 15 1015.5 1015.0 0.0
28/05:30pm 31.0 26.8 7.5 23 12.9 ESE 19 28 10 15 1015.1 1014.6 0.0
28/05:00pm 31.2 26.3 7.0 22 13.2 ESE 22 35 12 19 1014.9 1014.4 0.0
28/04:30pm 31.9 27.6 6.9 21 13.6 E 19 26 10 14 1014.7 1014.2 0.0
28/04:00pm 31.8 27.4 7.5 22 13.4 ESE 20 30 11 16 1014.8 1014.3 0.0
28/03:30pm 32.1 27.6 7.0 21 13.7 ESE 20 32 11 17 1015.0 1014.5 0.0
28/03:00pm 31.4 26.8 5.8 20 13.7 ESE 19 28 10 15 1015.4 1014.9 0.0
28/02:30pm 31.3 26.3 6.4 21 13.4 ESE 22 32 12 17 1015.8 1015.3 0.0
28/02:00pm 31.0 26.3 6.1 21 13.3 SE 20 39 11 21 1016.2 1015.7 0.0
28/01:30pm 30.3 25.0 4.9 20 13.3 ESE 22 35 12 19 1016.6 1016.1 0.0
28/01:00pm 29.8 24.4 4.4 20 13.1 ESE 22 35 12 19 1017.2 1016.7 0.0
28/12:30pm 29.1 23.6 3.9 20 12.8 SE 22 33 12 18 1017.7 1017.2 0.0
28/12:00pm 28.7 22.9 4.2 21 12.5 ESE 24 33 13 18 1018.4 1017.9 0.0
28/11:30am 28.1 21.5 4.4 22 12.1 ESE 28 39 15 21 1018.7 1018.2 0.0
28/11:00am 27.0 20.7 3.5 22 11.7 ESE 26 35 14 19 1019.0 1018.5 0.0
28/10:30am 26.7 21.7 4.5 24 11.2 SE 20 28 11 15 1019.3 1018.8 0.0
28/10:00am 25.6 20.2 4.7 26 10.6 SE 22 33 12 18 1019.5 1019.0 0.0
28/09:30am 24.1 18.2 4.0 27 9.9 SE 24 33 13 18 1019.5 1019.0 0.0
28/09:00am 23.6 19.1 4.0 28 9.6 SE 17 24 9 13 1019.4 1018.9 0.0
28/08:30am 22.6 18.5 4.6 31 8.9 SE 15 22 8 12 1018.9 1018.4 0.0
28/08:00am 21.6 18.5 5.5 35 8.1 SE 11 17 6 9 1018.7 1018.2 0.0
28/07:30am 20.4 17.3 5.6 38 7.3 SE 11 15 6 8 1018.5 1018.0 0.0
28/07:00am 20.6 17.1 5.4 37 7.5 SE 13 17 7 9 1018.2 1017.7 0.0
28/06:30am 21.0 17.6 5.8 37 7.6 SE 13 19 7 10 1018.1 1017.6 0.0
28/06:00am 21.4 17.7 6.1 37 7.7 SE 15 22 8 12 1017.8 1017.3 0.0
28/05:30am 21.6 18.4 6.7 38 7.6 SE 13 20 7 11 1017.6 1017.1 0.0
28/05:00am 22.4 18.8 6.6 36 8.1 SE 15 22 8 12 1017.6 1017.1 0.0
28/04:30am 22.4 19.2 7.0 37 8.0 SE 13 20 7 11 1017.4 1016.9 0.0
28/04:00am 23.0 19.9 7.1 36 8.3 SE 13 19 7 10 1017.3 1016.8 0.0
28/03:30am 23.4 20.0 7.5 36 8.3 SE 15 22 8 12 1017.3 1016.8 0.0
28/03:00am 23.9 20.5 7.5 35 8.6 SE 15 20 8 11 1017.4 1016.9 0.0
28/02:30am 24.4 21.6 8.4 36 8.6 SE 13 19 7 10 1017.4 1016.9 0.0
28/02:00am 24.8 21.9 8.3 35 8.9 SE 13 17 7 9 1017.4 1016.9 0.0
28/01:30am 25.1 22.8 9.0 36 8.8 SE 11 15 6 8 1017.5 1017.0 0.0
28/01:00am 25.1 23.7 10.9 41 8.0 SE 9 17 5 9 1017.5 1017.0 0.0
28/12:30am 24.0 23.4 11.7 46 7.0 SE 6 9 3 5 1017.5 1017.0 0.0
28/12:00am 22.8 23.1 12.1 51 6.1 E 2 4 1 2 1017.2 1016.7 0.0
 
Date/Time
CST
Temp
°C
App
Temp
°C
Dew
Point
Rel
Hum
%
Delta-T
°C
Wind Press
QNH
hPa
Press
MSL
hPa
Rain
since 9 am
mm
Dir
 
Spd
km/h
Gust
km/h
Spd
kts
Gust
kts
27/11:30pm 25.5 24.6 11.3 41 8.0 ESE 7 11 4 6 1017.2 1016.7 0.0
27/11:00pm 26.2 25.0 11.5 40 8.4 ESE 9 13 5 7 1017.3 1016.8 0.0
27/10:30pm 26.3 25.2 12.0 41 8.2 ESE 9 15 5 8 1017.2 1016.7 0.0
27/10:00pm 26.9 25.9 12.2 40 8.5 ESE 9 13 5 7 1017.1 1016.6 0.0

Other Formats:

Comma delimited format used in spreadsheet applications
http://www.bom.gov.au/fwo/IDD60801/IDD60801.94125.axf

JavaScript Object Notation format (JSON) in row-major order
http://www.bom.gov.au/fwo/IDD60801/IDD60801.94125.json